sensor_id;sensor_type;location;lat;lon;timestamp;P1;durP1;ratioP1;P2;durP2;ratioP2
27907;SDS011;15249;48.092;11.484;2022-09-01T00:00:43;40.9;;;33.6;;
27907;SDS011;15249;48.092;11.484;2022-09-01T00:01:45;40.9;;;33.6;;
27907;SDS011;15249;48.092;11.484;2022-09-01T00:02:49;40.9;;;33.6;;
27907;SDS011;15249;48.092;11.484;2022-09-01T00:03:52;40.9;;;33.6;;
27907;SDS011;15249;48.092;11.484;2022-09-01T00:04:57;44.9;;;35.4;;
27907;SDS011;15249;48.092;11.484;2022-09-01T00:05:57;44.9;;;35.4;;
27907;SDS011;15249;48.092;11.484;2022-09-01T00:06:58;44.9;;;35.4;;
27907;SDS011;15249;48.092;11.484;2022-09-01T00:07:59;44.9;;;35.4;;
27907;SDS011;15249;48.092;11.484;2022-09-01T00:09:00;44.9;;;35.4;;
27907;SDS011;15249;48.092;11.484;2022-09-01T00:10:05;44.9;;;35.4;;
27907;SDS011;15249;48.092;11.484;2022-09-01T00:11:07;44.9;;;35.4;;
27907;SDS011;15249;48.092;11.484;2022-09-01T00:12:08;44.9;;;35.4;;
27907;SDS011;15249;48.092;11.484;2022-09-01T00:13:09;44.9;;;35.4;;
27907;SDS011;15249;48.092;11.484;2022-09-01T00:14:09;44.9;;;35.4;;
27907;SDS011;15249;48.092;11.484;2022-09-01T00:15:11;44.9;;;35.4;;
27907;SDS011;15249;48.092;11.484;2022-09-01T00:16:15;44.9;;;35.4;;
27907;SDS011;15249;48.092;11.484;2022-09-01T00:17:17;44.9;;;35.4;;
27907;SDS011;15249;48.092;11.484;2022-09-01T00:18:17;44.9;;;35.4;;
27907;SDS011;15249;48.092;11.484;2022-09-01T00:19:18;44.9;;;35.4;;
27907;SDS011;15249;48.092;11.484;2022-09-01T00:20:19;44.9;;;35.4;;
27907;SDS011;15249;48.092;11.484;2022-09-01T00:21:20;44.9;;;35.4;;
27907;SDS011;15249;48.092;11.484;2022-09-01T00:22:23;44.9;;;35.4;;
27907;SDS011;15249;48.092;11.484;2022-09-01T00:23:24;44.9;;;35.4;;
27907;SDS011;15249;48.092;11.484;2022-09-01T00:24:25;44.9;;;35.4;;
27907;SDS011;15249;48.092;11.484;2022-09-01T00:25:26;44.9;;;35.4;;
27907;SDS011;15249;48.092;11.484;2022-09-01T00:26:27;41.95;;;34.85;;
27907;SDS011;15249;48.092;11.484;2022-09-01T00:27:28;41.95;;;34.85;;
27907;SDS011;15249;48.092;11.484;2022-09-01T00:28:30;41.95;;;34.85;;
27907;SDS011;15249;48.092;11.484;2022-09-01T00:29:32;41.95;;;34.85;;
27907;SDS011;15249;48.092;11.484;2022-09-01T00:30:32;41.95;;;34.85;;
27907;SDS011;15249;48.092;11.484;2022-09-01T00:31:33;41.95;;;34.85;;
27907;SDS011;15249;48.092;11.484;2022-09-01T00:32:34;41.95;;;34.85;;
27907;SDS011;15249;48.092;11.484;2022-09-01T00:33:36;41.95;;;34.85;;
27907;SDS011;15249;48.092;11.484;2022-09-01T00:34:37;41.95;;;34.85;;
27907;SDS011;15249;48.092;11.484;2022-09-01T00:35:38;41.95;;;34.85;;
27907;SDS011;15249;48.092;11.484;2022-09-01T00:36:38;40.15;;;34.15;;
27907;SDS011;15249;48.092;11.484;2022-09-01T00:37:39;40.15;;;34.15;;
27907;SDS011;15249;48.092;11.484;2022-09-01T00:38:39;40.15;;;34.15;;
27907;SDS011;15249;48.092;11.484;2022-09-01T00:39:40;40.15;;;34.15;;
27907;SDS011;15249;48.092;11.484;2022-09-01T00:40:40;40.15;;;34.15;;
27907;SDS011;15249;48.092;11.484;2022-09-01T00:41:42;40.15;;;34.15;;
27907;SDS011;15249;48.092;11.484;2022-09-01T00:42:43;40.15;;;34.15;;
27907;SDS011;15249;48.092;11.484;2022-09-01T00:43:44;40.15;;;34.15;;
27907;SDS011;15249;48.092;11.484;2022-09-01T00:44:47;40.15;;;34.15;;
27907;SDS011;15249;48.092;11.484;2022-09-01T00:45:50;40.15;;;34.15;;
27907;SDS011;15249;48.092;11.484;2022-09-01T00:46:51;40.15;;;34.15;;
27907;SDS011;15249;48.092;11.484;2022-09-01T00:47:53;46.65;;;37.04999;;
27907;SDS011;15249;48.092;11.484;2022-09-01T00:48:55;46.65;;;37.04999;;
27907;SDS011;15249;48.092;11.484;2022-09-01T00:49:57;46.65;;;37.04999;;
27907;SDS011;15249;48.092;11.484;2022-09-01T00:50:58;46.65;;;37.04999;;
27907;SDS011;15249;48.092;11.484;2022-09-01T00:52:01;46.65;;;37.04999;;
27907;SDS011;15249;48.092;11.484;2022-09-01T00:53:06;46.65;;;37.04999;;
27907;SDS011;15249;48.092;11.484;2022-09-01T00:54:10;46.65;;;37.04999;;
27907;SDS011;15249;48.092;11.484;2022-09-01T00:55:15;46.65;;;37.04999;;
27907;SDS011;15249;48.092;11.484;2022-09-01T00:56:20;46.65;;;37.04999;;
27907;SDS011;15249;48.092;11.484;2022-09-01T00:57:22;46.65;;;37.04999;;
27907;SDS011;15249;48.092;11.484;2022-09-01T00:58:23;44.75;;;36.55;;
27907;SDS011;15249;48.092;11.484;2022-09-01T00:59:24;44.75;;;36.55;;
27907;SDS011;15249;48.092;11.484;2022-09-01T01:00:27;44.75;;;36.55;;
27907;SDS011;15249;48.092;11.484;2022-09-01T01:01:29;44.75;;;36.55;;
27907;SDS011;15249;48.092;11.484;2022-09-01T01:02:30;44.75;;;36.55;;
27907;SDS011;15249;48.092;11.484;2022-09-01T01:03:30;44.75;;;36.55;;
27907;SDS011;15249;48.092;11.484;2022-09-01T01:04:31;44.75;;;36.55;;
27907;SDS011;15249;48.092;11.484;2022-09-01T01:05:35;44.75;;;36.55;;
27907;SDS011;15249;48.092;11.484;2022-09-01T01:06:40;44.75;;;36.55;;
27907;SDS011;15249;48.092;11.484;2022-09-01T01:07:43;44.75;;;36.55;;
27907;SDS011;15249;48.092;11.484;2022-09-01T01:08:48;44.75;;;36.55;;
27907;SDS011;15249;48.092;11.484;2022-09-01T01:09:49;44.75;;;36.55;;
27907;SDS011;15249;48.092;11.484;2022-09-01T01:10:50;44.75;;;36.55;;
27907;SDS011;15249;48.092;11.484;2022-09-01T01:11:51;44.75;;;36.55;;
27907;SDS011;15249;48.092;11.484;2022-09-01T01:12:52;44.75;;;36.55;;
27907;SDS011;15249;48.092;11.484;2022-09-01T01:13:55;44.75;;;36.55;;
27907;SDS011;15249;48.092;11.484;2022-09-01T01:14:57;44.75;;;36.55;;
27907;SDS011;15249;48.092;11.484;2022-09-01T01:15:58;44.75;;;36.55;;
27907;SDS011;15249;48.092;11.484;2022-09-01T01:16:59;44.75;;;36.55;;
27907;SDS011;15249;48.092;11.484;2022-09-01T01:18:00;44.75;;;36.55;;
27907;SDS011;15249;48.092;11.484;2022-09-01T01:19:00;44.75;;;36.55;;
27907;SDS011;15249;48.092;11.484;2022-09-01T01:24:18;51.34999;;;39.55;;
27907;SDS011;15249;48.092;11.484;2022-09-01T01:25:23;51.34999;;;39.55;;
27907;SDS011;15249;48.092;11.484;2022-09-01T01:26:23;51.34999;;;39.55;;
27907;SDS011;15249;48.092;11.484;2022-09-01T01:27:24;51.34999;;;39.55;;
27907;SDS011;15249;48.092;11.484;2022-09-01T01:28:32;51.34999;;;39.55;;
27907;SDS011;15249;48.092;11.484;2022-09-01T01:29:36;51.34999;;;39.55;;
27907;SDS011;15249;48.092;11.484;2022-09-01T01:30:37;55.8;;;40.95;;
27907;SDS011;15249;48.092;11.484;2022-09-01T01:31:39;55.8;;;40.95;;
27907;SDS011;15249;48.092;11.484;2022-09-01T01:32:42;55.8;;;40.95;;
27907;SDS011;15249;48.092;11.484;2022-09-01T01:33:44;55.8;;;40.95;;
27907;SDS011;15249;48.092;11.484;2022-09-01T01:34:46;55.8;;;40.95;;
27907;SDS011;15249;48.092;11.484;2022-09-01T01:35:47;55.8;;;40.95;;
27907;SDS011;15249;48.092;11.484;2022-09-01T01:36:48;55.8;;;40.95;;
27907;SDS011;15249;48.092;11.484;2022-09-01T01:37:49;55.8;;;40.95;;
27907;SDS011;15249;48.092;11.484;2022-09-01T01:38:50;55.8;;;40.95;;
27907;SDS011;15249;48.092;11.484;2022-09-01T01:39:51;55.8;;;40.95;;
27907;SDS011;15249;48.092;11.484;2022-09-01T01:40:52;57.9;;;41.89999;;
27907;SDS011;15249;48.092;11.484;2022-09-01T01:41:54;57.9;;;41.89999;;
27907;SDS011;15249;48.092;11.484;2022-09-01T01:42:56;57.9;;;41.89999;;
27907;SDS011;15249;48.092;11.484;2022-09-01T01:43:57;57.9;;;41.89999;;
27907;SDS011;15249;48.092;11.484;2022-09-01T01:44:59;57.9;;;41.89999;;
27907;SDS011;15249;48.092;11.484;2022-09-01T01:46:01;57.9;;;41.89999;;
27907;SDS011;15249;48.092;11.484;2022-09-01T01:47:09;57.9;;;41.89999;;
27907;SDS011;15249;48.092;11.484;2022-09-01T01:48:11;57.9;;;41.89999;;
27907;SDS011;15249;48.092;11.484;2022-09-01T01:49:12;57.9;;;41.89999;;
27907;SDS011;15249;48.092;11.484;2022-09-01T01:50:14;57.9;;;41.89999;;
27907;SDS011;15249;48.092;11.484;2022-09-01T01:51:16;57.9;;;41.89999;;
27907;SDS011;15249;48.092;11.484;2022-09-01T01:52:19;63.4;;;43.95;;
27907;SDS011;15249;48.092;11.484;2022-09-01T01:53:20;63.4;;;43.95;;
27907;SDS011;15249;48.092;11.484;2022-09-01T01:54:22;63.4;;;43.95;;
27907;SDS011;15249;48.092;11.484;2022-09-01T01:55:26;63.4;;;43.95;;
27907;SDS011;15249;48.092;11.484;2022-09-01T01:56:27;63.4;;;43.95;;
27907;SDS011;15249;48.092;11.484;2022-09-01T01:57:34;63.4;;;43.95;;
27907;SDS011;15249;48.092;11.484;2022-09-01T01:58:35;63.4;;;43.95;;
27907;SDS011;15249;48.092;11.484;2022-09-01T01:59:37;63.4;;;43.95;;
27907;SDS011;15249;48.092;11.484;2022-09-01T02:00:38;63.4;;;43.95;;
27907;SDS011;15249;48.092;11.484;2022-09-01T02:01:42;63.4;;;43.95;;
27907;SDS011;15249;48.092;11.484;2022-09-01T02:02:47;62.85;;;43.65;;
27907;SDS011;15249;48.092;11.484;2022-09-01T02:03:51;62.85;;;43.65;;
27907;SDS011;15249;48.092;11.484;2022-09-01T02:04:54;62.85;;;43.65;;
27907;SDS011;15249;48.092;11.484;2022-09-01T02:05:54;62.85;;;43.65;;
27907;SDS011;15249;48.092;11.484;2022-09-01T02:06:55;62.85;;;43.65;;
27907;SDS011;15249;48.092;11.484;2022-09-01T02:07:57;62.85;;;43.65;;
27907;SDS011;15249;48.092;11.484;2022-09-01T02:09:02;62.85;;;43.65;;
27907;SDS011;15249;48.092;11.484;2022-09-01T02:10:03;62.85;;;43.65;;
27907;SDS011;15249;48.092;11.484;2022-09-01T02:11:05;62.85;;;43.65;;
27907;SDS011;15249;48.092;11.484;2022-09-01T02:12:07;62.85;;;43.65;;
27907;SDS011;15249;48.092;11.484;2022-09-01T02:13:12;57.54999;;;40.00001;;
27907;SDS011;15249;48.092;11.484;2022-09-01T02:14:19;57.54999;;;40.00001;;
27907;SDS011;15249;48.092;11.484;2022-09-01T02:15:20;57.54999;;;40.00001;;
27907;SDS011;15249;48.092;11.484;2022-09-01T02:16:21;57.54999;;;40.00001;;
27907;SDS011;15249;48.092;11.484;2022-09-01T02:17:24;57.54999;;;40.00001;;
27907;SDS011;15249;48.092;11.484;2022-09-01T02:18:26;57.54999;;;40.00001;;
27907;SDS011;15249;48.092;11.484;2022-09-01T02:19:28;57.54999;;;40.00001;;
27907;SDS011;15249;48.092;11.484;2022-09-01T02:20:28;57.54999;;;40.00001;;
27907;SDS011;15249;48.092;11.484;2022-09-01T02:21:29;57.54999;;;40.00001;;
27907;SDS011;15249;48.092;11.484;2022-09-01T02:22:29;57.54999;;;40.00001;;
27907;SDS011;15249;48.092;11.484;2022-09-01T02:23:31;57.54999;;;40.00001;;
27907;SDS011;15249;48.092;11.484;2022-09-01T02:24:33;57.54999;;;40.00001;;
27907;SDS011;15249;48.092;11.484;2022-09-01T02:25:35;57.54999;;;40.00001;;
27907;SDS011;15249;48.092;11.484;2022-09-01T02:26:39;57.54999;;;40.00001;;
27907;SDS011;15249;48.092;11.484;2022-09-01T02:27:42;57.54999;;;40.00001;;
27907;SDS011;15249;48.092;11.484;2022-09-01T02:28:45;57.54999;;;40.00001;;
27907;SDS011;15249;48.092;11.484;2022-09-01T02:29:50;57.54999;;;40.00001;;
27907;SDS011;15249;48.092;11.484;2022-09-01T02:30:51;57.54999;;;40.00001;;
27907;SDS011;15249;48.092;11.484;2022-09-01T02:31:52;57.54999;;;40.00001;;
27907;SDS011;15249;48.092;11.484;2022-09-01T02:32:53;57.54999;;;40.00001;;
27907;SDS011;15249;48.092;11.484;2022-09-01T02:33:53;57.54999;;;40.00001;;
27907;SDS011;15249;48.092;11.484;2022-09-01T02:35:00;59.49999;;;39.49999;;
27907;SDS011;15249;48.092;11.484;2022-09-01T02:36:03;59.49999;;;39.49999;;
27907;SDS011;15249;48.092;11.484;2022-09-01T02:37:05;59.49999;;;39.49999;;
27907;SDS011;15249;48.092;11.484;2022-09-01T02:38:07;59.49999;;;39.49999;;
27907;SDS011;15249;48.092;11.484;2022-09-01T02:39:08;59.49999;;;39.49999;;
27907;SDS011;15249;48.092;11.484;2022-09-01T02:40:09;59.49999;;;39.49999;;
27907;SDS011;15249;48.092;11.484;2022-09-01T02:41:11;59.49999;;;39.49999;;
27907;SDS011;15249;48.092;11.484;2022-09-01T02:42:15;59.49999;;;39.49999;;
27907;SDS011;15249;48.092;11.484;2022-09-01T02:43:18;59.49999;;;39.49999;;
27907;SDS011;15249;48.092;11.484;2022-09-01T02:44:21;59.49999;;;39.49999;;
27907;SDS011;15249;48.092;11.484;2022-09-01T02:45:23;59.45;;;40.39999;;
27907;SDS011;15249;48.092;11.484;2022-09-01T02:46:25;59.45;;;40.39999;;
27907;SDS011;15249;48.092;11.484;2022-09-01T02:47:27;59.45;;;40.39999;;
27907;SDS011;15249;48.092;11.484;2022-09-01T02:48:29;59.45;;;40.39999;;
27907;SDS011;15249;48.092;11.484;2022-09-01T02:49:31;59.45;;;40.39999;;
27907;SDS011;15249;48.092;11.484;2022-09-01T02:50:32;59.45;;;40.39999;;
27907;SDS011;15249;48.092;11.484;2022-09-01T02:51:33;59.45;;;40.39999;;
27907;SDS011;15249;48.092;11.484;2022-09-01T02:52:37;59.45;;;40.39999;;
27907;SDS011;15249;48.092;11.484;2022-09-01T02:53:38;59.45;;;40.39999;;
27907;SDS011;15249;48.092;11.484;2022-09-01T02:54:40;59.45;;;40.39999;;
27907;SDS011;15249;48.092;11.484;2022-09-01T02:55:41;48.85;;;35.95;;
27907;SDS011;15249;48.092;11.484;2022-09-01T02:56:42;48.85;;;35.95;;
27907;SDS011;15249;48.092;11.484;2022-09-01T02:57:48;48.85;;;35.95;;
27907;SDS011;15249;48.092;11.484;2022-09-01T02:58:49;48.85;;;35.95;;
27907;SDS011;15249;48.092;11.484;2022-09-01T02:59:50;48.85;;;35.95;;
27907;SDS011;15249;48.092;11.484;2022-09-01T03:00:51;48.85;;;35.95;;
27907;SDS011;15249;48.092;11.484;2022-09-01T03:01:53;48.85;;;35.95;;
27907;SDS011;15249;48.092;11.484;2022-09-01T03:02:56;48.85;;;35.95;;
27907;SDS011;15249;48.092;11.484;2022-09-01T03:03:59;48.85;;;35.95;;
27907;SDS011;15249;48.092;11.484;2022-09-01T03:05:01;48.85;;;35.95;;
27907;SDS011;15249;48.092;11.484;2022-09-01T03:06:04;48.85;;;35.95;;
27907;SDS011;15249;48.092;11.484;2022-09-01T03:07:05;49.25;;;35.95;;
27907;SDS011;15249;48.092;11.484;2022-09-01T03:08:08;49.25;;;35.95;;
27907;SDS011;15249;48.092;11.484;2022-09-01T03:09:11;49.25;;;35.95;;
27907;SDS011;15249;48.092;11.484;2022-09-01T03:10:15;49.25;;;35.95;;
27907;SDS011;15249;48.092;11.484;2022-09-01T03:11:16;49.25;;;35.95;;
27907;SDS011;15249;48.092;11.484;2022-09-01T03:12:17;49.25;;;35.95;;
27907;SDS011;15249;48.092;11.484;2022-09-01T03:13:18;49.25;;;35.95;;
27907;SDS011;15249;48.092;11.484;2022-09-01T03:14:21;49.25;;;35.95;;
27907;SDS011;15249;48.092;11.484;2022-09-01T03:15:22;49.25;;;35.95;;
27907;SDS011;15249;48.092;11.484;2022-09-01T03:16:22;49.25;;;35.95;;
27907;SDS011;15249;48.092;11.484;2022-09-01T03:17:23;44.99999;;;33.7;;
27907;SDS011;15249;48.092;11.484;2022-09-01T03:18:23;44.99999;;;33.7;;
27907;SDS011;15249;48.092;11.484;2022-09-01T03:19:24;44.99999;;;33.7;;
27907;SDS011;15249;48.092;11.484;2022-09-01T03:20:25;44.99999;;;33.7;;
27907;SDS011;15249;48.092;11.484;2022-09-01T03:21:26;44.99999;;;33.7;;
27907;SDS011;15249;48.092;11.484;2022-09-01T03:22:28;44.99999;;;33.7;;
27907;SDS011;15249;48.092;11.484;2022-09-01T03:23:29;44.99999;;;33.7;;
27907;SDS011;15249;48.092;11.484;2022-09-01T03:24:31;44.99999;;;33.7;;
27907;SDS011;15249;48.092;11.484;2022-09-01T03:25:33;44.99999;;;33.7;;
27907;SDS011;15249;48.092;11.484;2022-09-01T03:26:35;44.99999;;;33.7;;
27907;SDS011;15249;48.092;11.484;2022-09-01T03:27:36;44.99999;;;33.7;;
27907;SDS011;15249;48.092;11.484;2022-09-01T03:28:37;44.99999;;;33.7;;
27907;SDS011;15249;48.092;11.484;2022-09-01T03:29:37;44.99999;;;33.7;;
27907;SDS011;15249;48.092;11.484;2022-09-01T03:30:43;44.99999;;;33.7;;
27907;SDS011;15249;48.092;11.484;2022-09-01T03:31:45;44.99999;;;33.7;;
27907;SDS011;15249;48.092;11.484;2022-09-01T03:32:46;44.99999;;;33.7;;
27907;SDS011;15249;48.092;11.484;2022-09-01T03:33:47;44.99999;;;33.7;;
27907;SDS011;15249;48.092;11.484;2022-09-01T03:34:47;44.99999;;;33.7;;
27907;SDS011;15249;48.092;11.484;2022-09-01T03:35:48;44.99999;;;33.7;;
27907;SDS011;15249;48.092;11.484;2022-09-01T03:36:50;44.99999;;;33.7;;
27907;SDS011;15249;48.092;11.484;2022-09-01T03:37:51;44.99999;;;33.7;;
27907;SDS011;15249;48.092;11.484;2022-09-01T03:38:52;50.85001;;;35.55;;
27907;SDS011;15249;48.092;11.484;2022-09-01T03:39:52;50.85001;;;35.55;;
27907;SDS011;15249;48.092;11.484;2022-09-01T03:40:54;50.85001;;;35.55;;
27907;SDS011;15249;48.092;11.484;2022-09-01T03:41:58;50.85001;;;35.55;;
27907;SDS011;15249;48.092;11.484;2022-09-01T03:43:00;50.85001;;;35.55;;
27907;SDS011;15249;48.092;11.484;2022-09-01T03:44:03;50.85001;;;35.55;;
27907;SDS011;15249;48.092;11.484;2022-09-01T03:45:08;50.85001;;;35.55;;
27907;SDS011;15249;48.092;11.484;2022-09-01T03:46:15;50.85001;;;35.55;;
27907;SDS011;15249;48.092;11.484;2022-09-01T03:47:17;50.85001;;;35.55;;
27907;SDS011;15249;48.092;11.484;2022-09-01T03:48:18;50.85001;;;35.55;;
27907;SDS011;15249;48.092;11.484;2022-09-01T03:49:24;51.74999;;;37.34999;;
27907;SDS011;15249;48.092;11.484;2022-09-01T03:50:24;51.74999;;;37.34999;;
27907;SDS011;15249;48.092;11.484;2022-09-01T03:51:25;51.74999;;;37.34999;;
27907;SDS011;15249;48.092;11.484;2022-09-01T03:52:26;51.74999;;;37.34999;;
27907;SDS011;15249;48.092;11.484;2022-09-01T03:53:28;51.74999;;;37.34999;;
27907;SDS011;15249;48.092;11.484;2022-09-01T03:54:31;51.74999;;;37.34999;;
27907;SDS011;15249;48.092;11.484;2022-09-01T03:55:33;51.74999;;;37.34999;;
27907;SDS011;15249;48.092;11.484;2022-09-01T03:56:38;51.74999;;;37.34999;;
27907;SDS011;15249;48.092;11.484;2022-09-01T03:57:41;51.74999;;;37.34999;;
27907;SDS011;15249;48.092;11.484;2022-09-01T03:58:46;51.74999;;;37.34999;;
27907;SDS011;15249;48.092;11.484;2022-09-01T03:59:46;53.95001;;;38.65001;;
27907;SDS011;15249;48.092;11.484;2022-09-01T04:00:51;53.95001;;;38.65001;;
27907;SDS011;15249;48.092;11.484;2022-09-01T04:01:55;53.95001;;;38.65001;;
27907;SDS011;15249;48.092;11.484;2022-09-01T04:02:57;53.95001;;;38.65001;;
27907;SDS011;15249;48.092;11.484;2022-09-01T04:04:00;53.95001;;;38.65001;;
27907;SDS011;15249;48.092;11.484;2022-09-01T04:05:01;53.95001;;;38.65001;;
27907;SDS011;15249;48.092;11.484;2022-09-01T04:06:02;53.95001;;;38.65001;;
27907;SDS011;15249;48.092;11.484;2022-09-01T04:07:02;53.95001;;;38.65001;;
27907;SDS011;15249;48.092;11.484;2022-09-01T04:08:04;53.95001;;;38.65001;;
27907;SDS011;15249;48.092;11.484;2022-09-01T04:09:06;53.95001;;;38.65001;;
27907;SDS011;15249;48.092;11.484;2022-09-01T04:10:10;55.95;;;39.45;;
27907;SDS011;15249;48.092;11.484;2022-09-01T04:11:14;55.95;;;39.45;;
27907;SDS011;15249;48.092;11.484;2022-09-01T04:12:17;55.95;;;39.45;;
27907;SDS011;15249;48.092;11.484;2022-09-01T04:13:19;55.95;;;39.45;;
27907;SDS011;15249;48.092;11.484;2022-09-01T04:14:24;55.95;;;39.45;;
27907;SDS011;15249;48.092;11.484;2022-09-01T04:15:25;55.95;;;39.45;;
27907;SDS011;15249;48.092;11.484;2022-09-01T04:20:38;55.95;;;39.45;;
27907;SDS011;15249;48.092;11.484;2022-09-01T04:21:39;57.45;;;38.05;;
27907;SDS011;15249;48.092;11.484;2022-09-01T04:22:40;57.45;;;38.05;;
27907;SDS011;15249;48.092;11.484;2022-09-01T04:23:41;57.45;;;38.05;;
27907;SDS011;15249;48.092;11.484;2022-09-01T04:24:44;57.45;;;38.05;;
27907;SDS011;15249;48.092;11.484;2022-09-01T04:25:46;57.45;;;38.05;;
27907;SDS011;15249;48.092;11.484;2022-09-01T04:26:48;57.45;;;38.05;;
27907;SDS011;15249;48.092;11.484;2022-09-01T04:27:54;57.45;;;38.05;;
27907;SDS011;15249;48.092;11.484;2022-09-01T04:28:55;57.45;;;38.05;;
27907;SDS011;15249;48.092;11.484;2022-09-01T04:29:56;57.45;;;38.05;;
27907;SDS011;15249;48.092;11.484;2022-09-01T04:30:57;57.45;;;38.05;;
27907;SDS011;15249;48.092;11.484;2022-09-01T04:32:02;51.44999;;;38.2;;
27907;SDS011;15249;48.092;11.484;2022-09-01T04:33:04;51.44999;;;38.2;;
27907;SDS011;15249;48.092;11.484;2022-09-01T04:34:08;51.44999;;;38.2;;
27907;SDS011;15249;48.092;11.484;2022-09-01T04:35:15;51.44999;;;38.2;;
27907;SDS011;15249;48.092;11.484;2022-09-01T04:36:20;51.44999;;;38.2;;
27907;SDS011;15249;48.092;11.484;2022-09-01T04:37:22;51.44999;;;38.2;;
27907;SDS011;15249;48.092;11.484;2022-09-01T04:38:23;51.44999;;;38.2;;
27907;SDS011;15249;48.092;11.484;2022-09-01T04:39:24;51.44999;;;38.2;;
27907;SDS011;15249;48.092;11.484;2022-09-01T04:40:24;51.44999;;;38.2;;
27907;SDS011;15249;48.092;11.484;2022-09-01T04:41:26;51.44999;;;38.2;;
27907;SDS011;15249;48.092;11.484;2022-09-01T04:42:28;53.05;;;38.5;;
27907;SDS011;15249;48.092;11.484;2022-09-01T04:43:30;53.05;;;38.5;;
27907;SDS011;15249;48.092;11.484;2022-09-01T04:44:30;53.05;;;38.5;;
27907;SDS011;15249;48.092;11.484;2022-09-01T04:45:31;53.05;;;38.5;;
27907;SDS011;15249;48.092;11.484;2022-09-01T04:46:35;53.05;;;38.5;;
27907;SDS011;15249;48.092;11.484;2022-09-01T04:47:41;53.05;;;38.5;;
27907;SDS011;15249;48.092;11.484;2022-09-01T04:48:44;53.05;;;38.5;;
27907;SDS011;15249;48.092;11.484;2022-09-01T04:49:46;53.05;;;38.5;;
27907;SDS011;15249;48.092;11.484;2022-09-01T04:50:48;53.05;;;38.5;;
27907;SDS011;15249;48.092;11.484;2022-09-01T04:51:49;53.05;;;38.5;;
27907;SDS011;15249;48.092;11.484;2022-09-01T04:52:53;50;;;36.05;;
27907;SDS011;15249;48.092;11.484;2022-09-01T04:53:53;50;;;36.05;;
27907;SDS011;15249;48.092;11.484;2022-09-01T04:54:54;50;;;36.05;;
27907;SDS011;15249;48.092;11.484;2022-09-01T04:55:55;50;;;36.05;;
27907;SDS011;15249;48.092;11.484;2022-09-01T04:56:56;50;;;36.05;;
27907;SDS011;15249;48.092;11.484;2022-09-01T04:57:57;50;;;36.05;;
27907;SDS011;15249;48.092;11.484;2022-09-01T04:58:59;50;;;36.05;;
27907;SDS011;15249;48.092;11.484;2022-09-01T05:00:00;50;;;36.05;;
27907;SDS011;15249;48.092;11.484;2022-09-01T05:01:12;50;;;36.05;;
27907;SDS011;15249;48.092;11.484;2022-09-01T05:02:14;50;;;36.05;;
27907;SDS011;15249;48.092;11.484;2022-09-01T05:03:20;50;;;36.05;;
27907;SDS011;15249;48.092;11.484;2022-09-01T05:04:22;50;;;36.05;;
27907;SDS011;15249;48.092;11.484;2022-09-01T05:05:26;50;;;36.05;;
27907;SDS011;15249;48.092;11.484;2022-09-01T05:06:27;50;;;36.05;;
27907;SDS011;15249;48.092;11.484;2022-09-01T05:07:29;50;;;36.05;;
27907;SDS011;15249;48.092;11.484;2022-09-01T05:08:31;50;;;36.05;;
27907;SDS011;15249;48.092;11.484;2022-09-01T05:09:33;50;;;36.05;;
27907;SDS011;15249;48.092;11.484;2022-09-01T05:10:37;50;;;36.05;;
27907;SDS011;15249;48.092;11.484;2022-09-01T05:11:39;50;;;36.05;;
27907;SDS011;15249;48.092;11.484;2022-09-01T05:12:40;50;;;36.05;;
27907;SDS011;15249;48.092;11.484;2022-09-01T05:13:41;50;;;36.05;;
27907;SDS011;15249;48.092;11.484;2022-09-01T05:14:43;45.24999;;;34.5;;
27907;SDS011;15249;48.092;11.484;2022-09-01T05:15:47;45.24999;;;34.5;;
27907;SDS011;15249;48.092;11.484;2022-09-01T05:16:49;45.24999;;;34.5;;
27907;SDS011;15249;48.092;11.484;2022-09-01T05:17:57;45.24999;;;34.5;;
27907;SDS011;15249;48.092;11.484;2022-09-01T05:18:57;45.24999;;;34.5;;
27907;SDS011;15249;48.092;11.484;2022-09-01T05:19:58;45.24999;;;34.5;;
27907;SDS011;15249;48.092;11.484;2022-09-01T05:21:05;45.24999;;;34.5;;
27907;SDS011;15249;48.092;11.484;2022-09-01T05:22:08;45.24999;;;34.5;;
27907;SDS011;15249;48.092;11.484;2022-09-01T05:23:11;45.24999;;;34.5;;
27907;SDS011;15249;48.092;11.484;2022-09-01T05:24:14;45.24999;;;34.5;;
27907;SDS011;15249;48.092;11.484;2022-09-01T05:25:17;45.6;;;36.05;;
27907;SDS011;15249;48.092;11.484;2022-09-01T05:26:19;45.6;;;36.05;;
27907;SDS011;15249;48.092;11.484;2022-09-01T05:27:21;45.6;;;36.05;;
27907;SDS011;15249;48.092;11.484;2022-09-01T05:28:24;45.6;;;36.05;;
27907;SDS011;15249;48.092;11.484;2022-09-01T05:29:26;45.6;;;36.05;;
27907;SDS011;15249;48.092;11.484;2022-09-01T05:30:28;45.6;;;36.05;;
27907;SDS011;15249;48.092;11.484;2022-09-01T05:31:33;45.6;;;36.05;;
27907;SDS011;15249;48.092;11.484;2022-09-01T05:32:36;45.6;;;36.05;;
27907;SDS011;15249;48.092;11.484;2022-09-01T05:33:45;45.6;;;36.05;;
27907;SDS011;15249;48.092;11.484;2022-09-01T05:34:46;45.6;;;36.05;;
27907;SDS011;15249;48.092;11.484;2022-09-01T05:35:51;42.15;;;33.45;;
27907;SDS011;15249;48.092;11.484;2022-09-01T05:36:54;42.15;;;33.45;;
27907;SDS011;15249;48.092;11.484;2022-09-01T05:37:57;42.15;;;33.45;;
27907;SDS011;15249;48.092;11.484;2022-09-01T05:38:58;42.15;;;33.45;;
27907;SDS011;15249;48.092;11.484;2022-09-01T05:40:00;42.15;;;33.45;;
27907;SDS011;15249;48.092;11.484;2022-09-01T05:41:03;42.15;;;33.45;;
27907;SDS011;15249;48.092;11.484;2022-09-01T05:42:06;42.15;;;33.45;;
27907;SDS011;15249;48.092;11.484;2022-09-01T05:43:11;42.15;;;33.45;;
27907;SDS011;15249;48.092;11.484;2022-09-01T05:44:14;42.15;;;33.45;;
27907;SDS011;15249;48.092;11.484;2022-09-01T05:45:22;42.15;;;33.45;;
27907;SDS011;15249;48.092;11.484;2022-09-01T05:46:23;38.64999;;;31.55;;
27907;SDS011;15249;48.092;11.484;2022-09-01T05:47:25;38.64999;;;31.55;;
27907;SDS011;15249;48.092;11.484;2022-09-01T05:48:25;38.64999;;;31.55;;
27907;SDS011;15249;48.092;11.484;2022-09-01T05:49:27;38.64999;;;31.55;;
27907;SDS011;15249;48.092;11.484;2022-09-01T05:50:28;38.64999;;;31.55;;
27907;SDS011;15249;48.092;11.484;2022-09-01T05:51:29;38.64999;;;31.55;;
27907;SDS011;15249;48.092;11.484;2022-09-01T05:52:30;38.64999;;;31.55;;
27907;SDS011;15249;48.092;11.484;2022-09-01T05:53:33;38.64999;;;31.55;;
27907;SDS011;15249;48.092;11.484;2022-09-01T05:54:34;38.64999;;;31.55;;
27907;SDS011;15249;48.092;11.484;2022-09-01T05:55:36;38.64999;;;31.55;;
27907;SDS011;15249;48.092;11.484;2022-09-01T05:56:38;38.64999;;;31.55;;
27907;SDS011;15249;48.092;11.484;2022-09-01T05:57:39;35.95;;;29.2;;
27907;SDS011;15249;48.092;11.484;2022-09-01T05:58:41;35.95;;;29.2;;
27907;SDS011;15249;48.092;11.484;2022-09-01T05:59:41;35.95;;;29.2;;
27907;SDS011;15249;48.092;11.484;2022-09-01T06:00:43;35.95;;;29.2;;